This is the latest recevied weather packets stored in our database for station/object LRSB. If no packets are shown the sender has not sent any weather packets the latest 10 day(s).
| Time | Temp. | Humidity | Pressure | Rain* | Wind** | Luminosity | Snow |
|---|---|---|---|---|---|---|---|
| 1778119391 | 12.78° C | 72% | 1014 hPa | - | - | - | - |
| 1778118491 | 16.11° C | 59% | 1014 hPa | - | - | - | - |
| 1778117591 | 16.11° C | 59% | 1014 hPa | - | - | - | - |
| 1778116691 | 16.11° C | 59% | 1013 hPa | - | - | - | - |
| 1778115792 | 16.11° C | 59% | 1013 hPa | - | - | - | - |
| 1778114891 | 18.89° C | 49% | 1013 hPa | - | - | - | - |
| 1778113992 | 18.89° C | 49% | 1013 hPa | - | - | - | - |
| 1778113091 | 18.89° C | 49% | 1013 hPa | - | - | - | - |
| 1778112191 | 18.89° C | 49% | 1013 hPa | - | - | - | - |
| 1778111291 | 17.78° C | 52% | 1014 hPa | - | - | - | - |
| 1778110391 | 17.78° C | 52% | 1014 hPa | - | - | - | - |
| 1778109492 | 17.78° C | 52% | 1014 hPa | - | - | - | - |
| 1778108591 | 17.78° C | 52% | 1014 hPa | - | - | - | - |
| 1778107691 | 17.22° C | 56% | 1014 hPa | - | - | - | - |
| 1778106791 | 17.22° C | 56% | 1014 hPa | - | - | - | - |
| 1778105891 | 18.89° C | 49% | 1014 hPa | - | - | - | - |
| 1778104990 | 18.89° C | 49% | 1014 hPa | - | - | - | - |
| 1778104107 | 20° C | 46% | 1014 hPa | - | - | - | - |
| 1778103191 | 20° C | 46% | 1014 hPa | - | - | - | - |
| 1778102291 | 17.78° C | 49% | 1013 hPa | - | - | - | - |
| 1778101391 | 17.78° C | 49% | 1013 hPa | - | - | - | - |
| 1778100492 | 13.89° C | 59% | 1013 hPa | - | - | - | - |
| 1778099591 | 13.89° C | 59% | 1013 hPa | - | - | - | - |
| 1778098691 | 16.11° C | 52% | 1013 hPa | - | - | - | - |
| 1778097791 | 16.11° C | 52% | 1013 hPa | - | - | - | - |
* Rain since midnight (hover to see other rain measurements)
** Current wind speed in m/s (hover to see current wind gust speed)